Terminal Aerodrome Forecast
Issued by NWS Wakefield, VA

Home | Current Version | Previous Version | Text Only | Print | Product List | Glossary On
Versions: 1 2 3 4 5 6 7 8 9 10 11 12 13 14 15 16 17 18 19 20 21 22 23 24 25 26 27
695
FTUS41 KAKQ 010539
TAFORF
TAF
KORF 010539Z 0106/0206 VRB04KT P6SM SCT250
     FM011000 05005KT P6SM SCT005 BKN250
     FM011400 06009KT P6SM SCT035 BKN200
     FM011700 08012KT P6SM -SHRA SCT025 BKN060 BKN120=

USA.gov is the U.S. government's official web portal to all federal, state and local government web resources and services.